.
WxDataArchive / Data Records for 2015-02-05
2015-02-04 February 2015 2015-02-06

Data Records for Thursday, 05 February 2015

Time	Temp	Chill	HIndex	Humid	Dewpt	 Wind 	HiWind	WindDir	Rain 	Barom
-----	----	-----	------	-----	-----	------	------	-------	-----	-----
00:00	16.5	16.5	16.5	76	10.3	0	1	270	0.00	30.273 
00:05	16.4	16.4	16.4	76	10.2	0	1	270	0.00	30.273 
00:10	16.2	16.2	16.2	76	10.0	0	1	270	0.00	30.273 
00:15	16.1	16.1	16.1	77	10.2	0	2	270	0.00	30.279 
00:20	15.9	15.9	15.9	77	10.0	0	2	270	0.00	30.279 
00:25	15.9	15.9	15.9	77	10.0	0	2	270	0.00	30.279 
00:30	15.9	15.9	15.9	77	10.0	0	2	270	0.00	30.290 
00:35	15.9	15.9	15.9	78	10.3	0	0	---	0.00	30.290 
00:40	15.9	15.9	15.9	78	10.3	0	2	270	0.00	30.290 
00:45	15.7	15.7	15.7	78	10.1	0	1	270	0.00	30.292 
00:50	15.6	15.6	15.6	78	10.0	0	2	270	0.00	30.292 
00:55	15.4	15.4	15.4	78	9.8	0	1	270	0.00	30.292 
01:00	15.2	15.2	15.2	78	9.6	0	3	270	0.00	30.294 
01:05	15.2	15.2	15.2	78	9.6	0	2	270	0.00	30.294 
01:10	15.2	15.2	15.2	79	9.9	0	1	270	0.00	30.294 
01:15	15.2	15.2	15.2	79	9.9	0	3	270	0.00	30.299 
01:20	15.2	15.2	15.2	79	9.9	0	4	315	0.00	30.299 
01:25	15.4	15.4	15.4	79	10.1	0	2	315	0.00	30.299 
01:30	15.4	15.4	15.4	80	10.4	0	2	315	0.00	30.306 
01:35	15.4	15.4	15.4	80	10.4	0	1	315	0.00	30.306 
01:40	15.4	15.4	15.4	81	10.6	0	1	315	0.00	30.306 
01:45	15.4	15.4	15.4	81	10.6	0	2	315	0.00	30.309 
01:50	15.4	15.4	15.4	81	10.6	0	1	315	0.00	30.309 
01:55	15.4	15.4	15.4	82	10.9	0	1	315	0.00	30.309 
02:00	15.4	15.4	15.4	82	10.9	0	2	315	0.00	30.315 
02:05	15.4	15.4	15.4	83	11.2	0	1	315	0.00	30.315 
02:10	15.4	15.4	15.4	83	11.2	0	1	315	0.00	30.315 
02:15	15.4	15.4	15.4	83	11.2	0	1	315	0.00	30.325 
02:20	15.2	15.2	15.2	84	11.3	0	1	315	0.00	30.325 
02:25	15.2	15.2	15.2	84	11.3	0	2	292	0.00	30.325 
02:30	15.2	15.2	15.2	84	11.3	0	1	292	0.00	30.329 
02:35	15.2	15.2	15.2	84	11.3	0	1	292	0.00	30.329 
02:40	15.1	15.1	15.1	84	11.2	0	2	292	0.00	30.329 
02:45	15.1	15.1	15.1	84	11.2	0	1	292	0.00	30.339 
02:50	14.9	14.9	14.9	84	11.0	0	1	292	0.00	30.339 
02:55	14.9	14.9	14.9	83	10.7	0	2	315	0.00	30.339 
03:00	14.6	14.6	14.6	83	10.4	0	2	315	0.00	30.342 
03:05	14.6	14.6	14.6	82	10.1	0	2	338	0.00	30.342 
03:10	14.4	14.4	14.4	81	9.7	0	4	338	0.00	30.342 
03:15	14.1	14.1	14.1	80	9.1	0	3	315	0.00	30.346 
03:20	14.0	14.0	14.0	79	8.7	0	3	338	0.00	30.346 
03:25	14.0	14.0	14.0	79	8.7	0	2	338	0.00	30.346 
03:30	13.8	13.8	13.8	78	8.2	0	2	338	0.00	30.348 
03:35	13.6	13.6	13.6	77	7.8	0	1	338	0.00	30.348 
03:40	13.5	13.5	13.5	77	7.7	0	1	338	0.00	30.348 
03:45	13.1	13.1	13.1	76	7.0	0	2	338	0.00	30.360 
03:50	12.8	12.8	12.8	75	6.4	0	1	338	0.00	30.360 
03:55	12.6	12.6	12.6	74	5.9	0	1	338	0.00	30.360 
04:00	12.1	12.1	12.1	74	5.4	0	0	---	0.00	30.362 
04:05	11.7	11.7	11.7	74	5.0	0	0	---	0.00	30.362 
04:10	11.4	11.4	11.4	74	4.8	0	0	---	0.00	30.362 
04:15	11.2	11.2	11.2	74	4.6	0	0	---	0.00	30.366 
04:20	11.1	11.1	11.1	75	4.8	0	0	---	0.00	30.366 
04:25	11.1	11.1	11.1	75	4.8	0	0	---	0.00	30.366 
04:30	10.9	10.9	10.9	75	4.6	0	0	---	0.00	30.369 
04:35	10.7	10.7	10.7	76	4.7	0	0	---	0.00	30.369 
04:40	10.5	10.5	10.5	76	4.5	0	0	---	0.00	30.369 
04:45	10.5	10.5	10.5	76	4.5	0	0	---	0.00	30.377 
04:50	10.4	10.4	10.4	76	4.4	0	0	---	0.00	30.377 
04:55	10.2	10.2	10.2	76	4.2	0	0	---	0.00	30.377 
05:00	10.2	10.2	10.2	77	4.5	0	0	---	0.00	30.382 
05:05	10.2	10.2	10.2	77	4.5	0	1	338	0.00	30.382 
05:10	10.4	10.4	10.4	77	4.6	0	0	---	0.00	30.382 
05:15	10.4	10.4	10.4	77	4.6	0	0	---	0.00	30.391 
05:20	10.2	10.2	10.2	77	4.5	0	1	338	0.00	30.391 
05:25	10.2	10.2	10.2	77	4.5	0	0	---	0.00	30.391 
05:30	10.0	10.0	10.0	77	4.3	0	0	---	0.00	30.398 
05:35	9.7	9.7	9.7	77	4.0	0	0	---	0.00	30.398 
05:40	9.3	9.3	9.3	76	3.3	0	0	---	0.00	30.398 
05:45	8.8	8.8	8.8	76	2.8	0	0	---	0.00	30.402 
05:50	8.4	8.4	8.4	76	2.4	0	0	---	0.00	30.402 
05:55	7.9	7.9	7.9	76	1.9	0	0	---	0.00	30.402 
06:00	7.4	7.4	7.4	76	1.5	0	0	---	0.00	30.409 
06:05	6.9	6.9	6.9	76	1.0	0	0	---	0.00	30.409 
06:10	6.5	6.5	6.5	77	0.9	0	0	---	0.00	30.409 
06:15	6.3	6.3	6.3	77	0.7	0	0	---	0.00	30.417 
06:20	6.1	6.1	6.1	77	0.5	0	0	---	0.00	30.417 
06:25	5.8	5.8	5.8	77	0.2	0	0	---	0.00	30.417 
06:30	5.4	5.4	5.4	77	-0.2	0	0	---	0.00	30.429 
06:35	5.2	5.2	5.2	78	-0.1	0	0	---	0.00	30.429 
06:40	5.0	5.0	5.0	78	-0.3	0	0	---	0.00	30.429 
06:45	4.5	4.5	4.5	78	-0.8	0	0	---	0.00	30.433 
06:50	4.3	4.3	4.3	78	-1.0	0	0	---	0.00	30.433 
06:55	3.9	3.9	3.9	79	-1.1	0	0	---	0.00	30.433 
07:00	3.9	3.9	3.9	79	-1.1	0	0	---	0.00	30.439 
07:05	4.1	4.1	4.1	80	-0.7	0	0	---	0.00	30.439 
07:10	4.1	4.1	4.1	80	-0.7	0	0	---	0.00	30.439 
07:15	4.1	4.1	4.1	80	-0.7	0	0	---	0.00	30.441 
07:20	3.9	3.9	3.9	80	-0.9	0	0	---	0.00	30.441 
07:25	3.9	3.9	3.9	80	-0.9	0	0	---	0.00	30.441 
07:30	3.7	3.7	3.7	80	-1.1	0	0	---	0.00	30.454 
07:35	3.4	3.4	3.4	80	-1.4	0	0	---	0.00	30.454 
07:40	3.2	3.2	3.2	80	-1.6	0	0	---	0.00	30.454 
07:45	2.8	2.8	2.8	80	-1.9	0	0	---	0.00	30.459 
07:50	2.6	2.6	2.6	80	-2.1	0	0	---	0.00	30.459 
07:55	2.2	2.2	2.2	80	-2.5	0	0	---	0.00	30.459 
08:00	1.8	1.8	1.8	80	-2.9	0	0	---	0.00	30.462 
08:05	1.5	1.5	1.5	80	-3.2	0	0	---	0.00	30.462 
08:10	1.3	1.3	1.3	80	-3.4	0	0	---	0.00	30.462 
08:15	1.1	1.1	1.1	80	-3.6	0	0	---	0.00	30.473 
08:20	0.9	0.9	0.9	80	-3.8	0	0	---	0.00	30.473 
08:25	0.9	0.9	0.9	80	-3.8	0	0	---	0.00	30.473 
08:30	1.1	1.1	1.1	80	-3.6	0	0	---	0.00	30.478 
08:35	1.3	1.3	1.3	81	-3.1	0	0	---	0.00	30.478 
08:40	1.8	1.8	1.8	81	-2.7	0	0	---	0.00	30.478 
08:45	2.6	2.6	2.6	83	-1.4	0	0	---	0.00	30.490 
08:50	3.7	3.7	3.7	84	-0.0	0	0	---	0.00	30.490 
08:55	5.4	5.4	5.4	85	1.9	0	0	---	0.00	30.490 
09:00	6.7	6.7	6.7	86	3.4	0	0	---	0.00	30.488 
09:05	8.1	8.1	8.1	85	4.5	0	0	---	0.00	30.488 
09:10	9.2	9.2	9.2	85	5.6	0	0	---	0.00	30.488 
09:15	10.4	10.4	10.4	85	6.8	0	0	---	0.00	30.491 
09:20	11.7	11.7	11.7	85	8.1	0	0	---	0.00	30.491 
09:25	12.4	12.4	12.4	83	8.2	0	0	---	0.00	30.491 
09:30	12.9	12.9	12.9	80	7.9	0	0	---	0.00	30.490 
09:35	12.3	12.3	12.3	77	6.5	0	0	---	0.00	30.490 
09:40	11.7	11.7	11.7	77	5.9	0	0	---	0.00	30.490 
09:45	11.7	11.7	11.7	76	5.6	0	1	338	0.00	30.493 
09:50	11.9	11.9	11.9	76	5.8	0	0	---	0.00	30.493 
09:55	12.1	12.1	12.1	75	5.7	0	1	338	0.00	30.493 
10:00	12.3	12.3	12.3	74	5.6	0	0	---	0.00	30.495 
10:05	13.1	13.1	13.1	75	6.7	0	0	---	0.00	30.495 
10:10	14.3	14.3	14.3	71	6.6	0	1	315	0.00	30.495 
10:15	15.1	15.1	15.1	68	6.5	0	1	225	0.00	30.494 
10:20	15.2	15.2	15.2	67	6.2	0	1	225	0.00	30.494 
10:25	15.2	15.2	15.2	66	5.9	0	2	225	0.00	30.494 
10:30	15.1	15.1	15.1	65	5.5	0	1	225	0.00	30.495 
10:35	14.8	14.8	14.8	66	5.5	0	2	225	0.00	30.495 
10:40	14.6	14.6	14.6	66	5.3	0	2	225	0.00	30.495 
10:45	14.6	14.6	14.6	65	5.0	0	1	225	0.00	30.496 
10:50	14.6	14.6	14.6	64	4.7	0	1	225	0.00	30.496 
10:55	14.6	14.6	14.6	65	5.0	0	1	225	0.00	30.496 
11:00	14.6	14.6	14.6	65	5.0	0	1	225	0.00	30.498 
11:05	14.4	14.4	14.4	64	4.5	1	3	112	0.00	30.498 
11:10	14.4	14.4	14.4	65	4.8	0	2	112	0.00	30.498 
11:15	14.6	14.6	14.6	64	4.7	0	2	112	0.00	30.502 
11:20	14.6	14.6	14.6	64	4.7	0	1	112	0.00	30.502 
11:25	14.6	14.6	14.6	64	4.7	0	1	112	0.00	30.502 
11:30	14.6	14.6	14.6	63	4.3	0	3	112	0.00	30.507 
11:35	14.6	14.6	14.6	63	4.3	0	1	112	0.00	30.507 
11:40	14.8	14.8	14.8	63	4.5	0	2	112	0.00	30.507 
11:45	14.4	14.4	14.4	62	3.8	2	4	112	0.00	30.502 
11:50	14.3	14.3	14.3	63	4.0	0	1	90	0.00	30.502 
11:55	14.4	14.4	14.4	62	3.8	0	3	112	0.00	30.502 
12:00	14.6	14.6	14.6	63	4.3	0	1	112	0.00	30.497 
12:05	14.9	14.9	14.9	62	4.3	0	2	112	0.00	30.497 
12:10	15.1	15.1	15.1	62	4.5	0	3	90	0.00	30.497 
12:15	15.4	15.4	15.4	62	4.7	0	2	90	0.00	30.496 
12:20	15.7	15.7	15.7	62	5.0	0	3	90	0.00	30.496 
12:25	15.6	15.6	15.6	62	4.9	1	3	90	0.00	30.496 
12:30	15.6	15.6	15.6	64	5.6	0	1	90	0.00	30.485 
12:35	15.9	15.9	15.9	65	6.2	0	3	90	0.00	30.485 
12:40	16.2	16.2	16.2	65	6.5	0	1	90	0.00	30.485 
12:45	16.9	16.9	16.9	65	7.2	0	1	90	0.00	30.479 
12:50	17.7	17.7	17.7	65	8.0	0	1	90	0.00	30.479 
12:55	17.8	17.8	17.8	62	7.0	0	2	90	0.00	30.479 
13:00	17.3	17.3	17.3	61	6.2	0	1	90	0.00	30.477 
13:05	17.3	17.3	17.3	62	6.5	0	2	315	0.00	30.477 
13:10	17.5	17.5	17.5	62	6.7	0	2	292	0.00	30.477 
13:15	17.7	17.7	17.7	62	6.9	0	2	292	0.00	30.470 
13:20	17.8	17.8	17.8	62	7.0	0	1	292	0.00	30.470 
13:25	18.0	18.0	18.0	62	7.2	0	1	292	0.00	30.470 
13:30	18.1	18.1	18.1	61	6.9	0	2	315	0.00	30.462 
13:35	18.1	18.1	18.1	60	6.6	0	1	315	0.00	30.462 
13:40	18.1	18.1	18.1	61	6.9	0	2	315	0.00	30.462 
13:45	18.1	18.1	18.1	60	6.6	0	2	315	0.00	30.454 
13:50	18.3	18.3	18.3	59	6.4	0	2	315	0.00	30.454 
13:55	18.3	18.3	18.3	60	6.8	0	3	315	0.00	30.454 
14:00	18.4	18.4	18.4	61	7.2	0	1	315	0.00	30.451 
14:05	18.3	18.3	18.3	59	6.4	0	2	315	0.00	30.451 
14:10	18.3	18.3	18.3	60	6.8	0	3	270	0.00	30.451 
14:15	18.3	18.3	18.3	60	6.8	0	2	270	0.00	30.447 
14:20	18.1	18.1	18.1	59	6.2	0	2	270	0.00	30.447 
14:25	18.3	18.3	18.3	60	6.8	1	3	270	0.00	30.447 
14:30	18.3	18.3	18.3	60	6.8	0	3	270	0.00	30.437 
14:35	18.1	18.1	18.1	59	6.2	0	3	248	0.00	30.437 
14:40	18.3	18.3	18.3	60	6.8	0	2	248	0.00	30.437 
14:45	18.1	18.1	18.1	59	6.2	0	1	248	0.00	30.434 
14:50	18.3	18.3	18.3	60	6.8	0	1	248	0.00	30.434 
14:55	18.4	18.4	18.4	60	6.9	0	2	248	0.00	30.434 
15:00	18.4	18.4	18.4	59	6.5	0	2	248	0.00	30.434 
15:05	18.4	18.4	18.4	59	6.5	0	1	248	0.00	30.434 
15:10	18.4	18.4	18.4	59	6.5	0	3	248	0.00	30.434 
15:15	18.4	18.4	18.4	59	6.5	0	1	248	0.00	30.433 
15:20	18.4	18.4	18.4	60	6.9	0	1	248	0.00	30.433 
15:25	18.4	18.4	18.4	60	6.9	0	1	248	0.00	30.433 
15:30	18.4	18.4	18.4	60	6.9	0	2	248	0.00	30.431 
15:35	18.6	18.6	18.6	61	7.4	0	1	248	0.00	30.431 
15:40	18.6	18.6	18.6	60	7.1	0	1	248	0.00	30.431 
15:45	18.6	18.6	18.6	59	6.7	0	1	248	0.00	30.431 
15:50	18.4	18.4	18.4	60	6.9	0	2	248	0.00	30.431 
15:55	18.3	18.3	18.3	60	6.8	0	1	248	0.00	30.431 
16:00	18.1	18.1	18.1	60	6.6	0	2	248	0.00	30.423 
16:05	18.1	18.1	18.1	61	6.9	0	1	248	0.00	30.423 
16:10	18.1	18.1	18.1	60	6.6	0	2	248	0.00	30.423 
16:15	17.8	17.8	17.8	59	5.9	0	1	248	0.00	30.424 
16:20	17.7	17.7	17.7	59	5.8	0	2	248	0.00	30.424 
16:25	17.7	17.7	17.7	59	5.8	0	2	248	0.00	30.424 
16:30	17.7	17.7	17.7	59	5.8	1	3	248	0.00	30.423 
16:35	17.5	17.5	17.5	58	5.3	1	4	248	0.00	30.423 
16:40	17.5	17.5	17.5	58	5.3	1	3	248	0.00	30.423 
16:45	17.3	17.3	17.3	59	5.5	0	2	248	0.00	30.422 
16:50	17.3	17.3	17.3	60	5.8	0	2	292	0.00	30.422 
16:55	17.2	17.2	17.2	61	6.1	0	2	292	0.00	30.422 
17:00	17.2	17.2	17.2	61	6.1	0	2	292	0.00	30.420 
17:05	17.2	17.2	17.2	61	6.1	0	2	292	0.00	30.420 
17:10	17.0	17.0	17.0	61	5.9	0	1	292	0.00	30.420 
17:15	16.9	16.9	16.9	61	5.8	1	2	292	0.00	30.418 
17:20	16.7	16.7	16.7	61	5.6	0	1	292	0.00	30.418 
17:25	16.5	16.5	16.5	61	5.4	1	2	292	0.00	30.418 
17:30	16.4	16.4	16.4	61	5.3	0	2	292	0.00	30.415 
17:35	16.2	16.2	16.2	62	5.5	0	1	292	0.00	30.415 
17:40	16.1	16.1	16.1	61	5.1	0	2	292	0.00	30.415 
17:45	15.7	15.7	15.7	61	4.7	0	1	292	0.00	30.413 
17:50	15.6	15.6	15.6	60	4.2	0	1	292	0.00	30.413 
17:55	15.2	15.2	15.2	61	4.2	0	0	---	0.00	30.413 
18:00	14.9	14.9	14.9	61	3.9	0	1	292	0.00	30.410 
18:05	14.8	14.8	14.8	62	4.2	0	0	---	0.00	30.410 
18:10	14.4	14.4	14.4	62	3.8	0	1	292	0.00	30.410 
18:15	14.1	14.1	14.1	63	3.9	0	0	---	0.00	30.417 
18:20	13.8	13.8	13.8	63	3.6	0	0	---	0.00	30.417 
18:25	13.3	13.3	13.3	64	3.4	0	0	---	0.00	30.417 
18:30	12.8	12.8	12.8	64	3.0	0	0	---	0.00	30.413 
18:35	12.3	12.3	12.3	65	2.8	0	0	---	0.00	30.413 
18:40	11.9	11.9	11.9	65	2.4	0	0	---	0.00	30.413 
18:45	11.4	11.4	11.4	66	2.3	0	0	---	0.00	30.406 
18:50	11.1	11.1	11.1	67	2.3	0	0	---	0.00	30.406 
18:55	10.7	10.7	10.7	68	2.3	0	0	---	0.00	30.406 
19:00	10.5	10.5	10.5	69	2.4	0	0	---	0.00	30.403 
19:05	10.2	10.2	10.2	69	2.1	0	0	---	0.00	30.403 
19:10	10.0	10.0	10.0	70	2.2	0	0	---	0.00	30.403 
19:15	10.0	10.0	10.0	71	2.5	0	1	292	0.00	30.404 
19:20	9.9	9.9	9.9	71	2.4	0	1	292	0.00	30.404 
19:25	9.9	9.9	9.9	71	2.4	0	0	---	0.00	30.404 
19:30	9.9	9.9	9.9	72	2.7	0	1	292	0.00	30.400 
19:35	9.9	9.9	9.9	73	3.0	0	0	---	0.00	30.400 
19:40	9.9	9.9	9.9	73	3.0	0	1	292	0.00	30.400 
19:45	10.0	10.0	10.0	73	3.1	0	0	---	0.00	30.399 
19:50	10.0	10.0	10.0	73	3.1	0	0	---	0.00	30.399 
19:55	9.9	9.9	9.9	73	3.0	0	0	---	0.00	30.399 
20:00	9.9	9.9	9.9	73	3.0	0	0	---	0.00	30.398 
20:05	9.7	9.7	9.7	73	2.8	0	1	292	0.00	30.398 
20:10	9.5	9.5	9.5	74	2.9	0	1	292	0.00	30.398 
20:15	9.7	9.7	9.7	74	3.1	0	0	---	0.00	30.404 
20:20	9.7	9.7	9.7	74	3.1	0	1	292	0.00	30.404 
20:25	9.7	9.7	9.7	75	3.4	0	1	292	0.00	30.404 
20:30	9.7	9.7	9.7	75	3.4	0	1	292	0.00	30.396 
20:35	9.9	9.9	9.9	75	3.6	0	1	292	0.00	30.396 
20:40	9.9	9.9	9.9	75	3.6	0	1	292	0.00	30.396 
20:45	10.0	10.0	10.0	75	3.7	0	1	292	0.00	30.392 
20:50	10.0	10.0	10.0	75	3.7	0	1	292	0.00	30.392 
20:55	10.0	10.0	10.0	75	3.7	0	1	292	0.00	30.392 
21:00	10.0	10.0	10.0	75	3.7	0	1	292	0.00	30.385 
21:05	10.0	10.0	10.0	75	3.7	0	1	292	0.00	30.385 
21:10	10.0	10.0	10.0	75	3.7	0	1	292	0.00	30.385 
21:15	9.9	9.9	9.9	75	3.6	0	0	---	0.00	30.372 
21:20	9.7	9.7	9.7	75	3.4	0	0	---	0.00	30.372 
21:25	9.5	9.5	9.5	75	3.2	0	1	292	0.00	30.372 
21:30	9.3	9.3	9.3	75	3.0	0	0	---	0.00	30.368 
21:35	9.2	9.2	9.2	75	2.9	0	1	292	0.00	30.368 
21:40	9.2	9.2	9.2	75	2.9	0	1	292	0.00	30.368 
21:45	9.0	9.0	9.0	76	3.0	0	1	292	0.00	30.370 
21:50	9.0	9.0	9.0	76	3.0	0	0	---	0.00	30.370 
21:55	9.0	9.0	9.0	76	3.0	0	1	292	0.00	30.370 
22:00	9.0	9.0	9.0	76	3.0	0	1	292	0.00	30.375 
22:05	9.0	9.0	9.0	77	3.3	0	1	292	0.00	30.375 
22:10	9.0	9.0	9.0	77	3.3	0	1	292	0.00	30.375 
22:15	8.8	8.8	8.8	77	3.1	0	0	---	0.00	30.368 
22:20	8.8	8.8	8.8	77	3.1	0	0	---	0.00	30.368 
22:25	8.6	8.6	8.6	77	2.9	0	0	---	0.00	30.368 
22:30	8.8	8.8	8.8	77	3.1	0	1	292	0.00	30.361 
22:35	8.8	8.8	8.8	77	3.1	0	1	292	0.00	30.361 
22:40	9.0	9.0	9.0	77	3.3	0	1	292	0.00	30.361 
22:45	9.2	9.2	9.2	77	3.5	0	1	292	0.00	30.349 
22:50	9.5	9.5	9.5	77	3.8	0	3	270	0.00	30.349 
22:55	9.9	9.9	9.9	77	4.2	0	2	270	0.00	30.349 
23:00	10.0	10.0	10.0	77	4.3	0	2	270	0.00	30.349 
23:05	10.4	10.4	10.4	77	4.6	0	1	270	0.00	30.349 
23:10	10.7	10.7	10.7	77	4.9	0	2	270	0.00	30.349 
23:15	10.9	10.9	10.9	77	5.1	0	1	270	0.00	30.350 
23:20	11.1	11.1	11.1	76	5.0	0	1	270	0.00	30.350 
23:25	11.4	11.4	11.4	76	5.3	0	2	270	0.00	30.350 
23:30	11.6	11.6	11.6	76	5.5	0	2	270	0.00	30.346 
23:35	11.7	11.7	11.7	76	5.6	0	2	270	0.00	30.346 
23:40	11.9	11.9	11.9	75	5.5	0	2	270	0.00	30.346 
23:45	12.1	12.1	12.1	75	5.7	0	2	270	0.00	30.334 
23:50	12.1	12.1	12.1	74	5.4	0	2	270	0.00	30.334 
23:55	12.3	12.3	12.3	74	5.6	0	1	270	0.00	30.334 

CoCoRaHS
IN-AL-39
A2 Web Hosting
Creative Commons License
GoDaddy
search engine by freefind advanced

loaded 2018-11-20 06:10:10 • last modified 2010-11-18 10:43:29
Privacy PolicyDisclaimer
• wx.awcolley.com is powered by PmWiki v.2002016 •
• all content (unless otherwise noted) © 2018 A W Colley